Time;durP1;ratioP1;P1;durP2;ratioP2;P2;SDS_P1;SDS_P2;PMS_P1;PMS_P2;Temp;Humidity;BMP_temperature;BMP_pressure;BME280_temperature;BME280_humidity;BME280_pressure;Samples;Min_cycle;Max_cycle;Signal;HPM_P1;HPM_P2
2022/10/06 00:01:08;;;;;;;3.05;1.55;;;;;;;;;;4892879;29;20342;-59
2022/10/06 00:03:34;;;;;;;2.22;1.10;;;;;;;;;;4894533;29;20041;-59
2022/10/06 00:06:01;;;;;;;3.55;1.40;;;;;;;;;;4895570;29;20048;-60
2022/10/06 00:08:29;;;;;;;2.42;1.13;;;;;;;;;;4894701;29;20067;-59
2022/10/06 00:10:55;;;;;;;5.63;1.30;;;;;;;;;;4894136;29;20044;-60
2022/10/06 00:13:21;;;;;;;3.35;1.20;;;;;;;;;;4891444;29;20039;-59
2022/10/06 00:15:46;;;;;;;1.90;1.17;;;;;;;;;;4893581;29;20044;-59
2022/10/06 00:18:12;;;;;;;4.05;1.50;;;;;;;;;;4894930;29;20025;-59
2022/10/06 00:20:37;;;;;;;2.25;1.20;;;;;;;;;;4894969;29;20063;-59
2022/10/06 00:23:03;;;;;;;3.88;1.38;;;;;;;;;;4894339;29;20071;-59
2022/10/06 00:25:28;;;;;;;2.85;1.35;;;;;;;;;;4895090;29;20464;-59
2022/10/06 00:27:55;;;;;;;4.68;1.52;;;;;;;;;;4894184;29;20048;-59
2022/10/06 00:30:25;;;;;;;5.72;1.48;;;;;;;;;;4882828;29;20037;-59
2022/10/06 00:32:56;;;;;;;4.75;1.30;;;;;;;;;;4895358;29;20039;-59
2022/10/06 00:35:25;;;;;;;3.63;1.45;;;;;;;;;;4894833;29;20048;-59
2022/10/06 00:37:51;;;;;;;3.33;1.50;;;;;;;;;;4886315;29;20119;-59
2022/10/06 00:40:18;;;;;;;6.22;1.42;;;;;;;;;;4881502;29;20120;-59
2022/10/06 00:42:54;;;;;;;3.55;1.20;;;;;;;;;;4888773;29;20068;-59
2022/10/06 00:45:25;;;;;;;6.63;1.48;;;;;;;;;;4893632;29;20121;-59
2022/10/06 00:47:53;;;;;;;4.78;1.20;;;;;;;;;;4894250;29;20025;-59
2022/10/06 00:50:18;;;;;;;4.38;1.50;;;;;;;;;;4867910;29;20064;-59
2022/10/06 00:52:44;;;;;;;4.53;1.48;;;;;;;;;;4889047;29;20167;-58
2022/10/06 00:55:10;;;;;;;5.72;1.40;;;;;;;;;;4892001;29;20052;-59
2022/10/06 00:57:37;;;;;;;4.80;1.40;;;;;;;;;;4892971;29;20176;-59
2022/10/06 01:00:05;;;;;;;6.55;1.77;;;;;;;;;;4889648;29;20379;-59
2022/10/06 01:02:40;;;;;;;3.10;1.33;;;;;;;;;;4884938;29;20041;-59
2022/10/06 01:05:08;;;;;;;7.25;1.48;;;;;;;;;;4890779;29;20068;-59
2022/10/06 01:07:33;;;;;;;6.15;1.60;;;;;;;;;;4893625;29;20060;-59
2022/10/06 01:09:59;;;;;;;6.63;1.33;;;;;;;;;;4893952;29;20445;-59
2022/10/06 01:12:28;;;;;;;8.68;1.38;;;;;;;;;;4891443;29;20048;-60
2022/10/06 01:14:56;;;;;;;5.75;1.40;;;;;;;;;;4891927;29;20041;-60
2022/10/06 01:17:28;;;;;;;7.15;1.40;;;;;;;;;;4889687;29;20141;-60
2022/10/06 01:20:16;;;;;;;6.18;1.42;;;;;;;;;;4888669;29;20509;-60
2022/10/06 01:22:59;;;;;;;3.65;1.25;;;;;;;;;;4891140;29;20092;-59
2022/10/06 01:25:24;;;;;;;6.20;1.40;;;;;;;;;;4893429;29;20071;-61
2022/10/06 01:27:52;;;;;;;4.80;1.40;;;;;;;;;;4892253;29;20060;-60
2022/10/06 01:30:24;;;;;;;2.25;1.23;;;;;;;;;;4892851;29;20037;-61
2022/10/06 01:32:50;;;;;;;5.25;1.30;;;;;;;;;;4894225;29;20041;-60
2022/10/06 01:35:15;;;;;;;5.85;1.40;;;;;;;;;;4892798;29;20036;-59
2022/10/06 01:37:41;;;;;;;9.32;1.55;;;;;;;;;;4894926;29;20390;-64
2022/10/06 01:40:07;;;;;;;8.25;1.38;;;;;;;;;;4892946;29;20040;-59
2022/10/06 01:42:34;;;;;;;6.00;1.30;;;;;;;;;;4887540;29;20049;-58
2022/10/06 01:45:00;;;;;;;4.82;1.40;;;;;;;;;;4893794;29;20165;-58
2022/10/06 01:47:26;;;;;;;4.93;1.40;;;;;;;;;;4895854;29;20115;-58
2022/10/06 01:49:51;;;;;;;6.05;1.50;;;;;;;;;;4897165;29;20104;-58
2022/10/06 01:52:18;;;;;;;7.38;1.40;;;;;;;;;;4896457;29;20414;-57
2022/10/06 01:54:43;;;;;;;7.05;1.45;;;;;;;;;;4895845;29;20470;-56
2022/10/06 01:57:08;;;;;;;5.18;1.30;;;;;;;;;;4883988;29;20043;-59
2022/10/06 01:59:34;;;;;;;5.25;1.48;;;;;;;;;;4896613;29;20048;-59
2022/10/06 02:02:00;;;;;;;5.85;1.48;;;;;;;;;;4898591;29;20119;-57
2022/10/06 02:04:25;;;;;;;9.88;1.77;;;;;;;;;;4891127;29;20347;-58
2022/10/06 02:06:51;;;;;;;11.05;1.70;;;;;;;;;;4898628;29;20124;-57
2022/10/06 02:09:17;;;;;;;7.35;1.55;;;;;;;;;;4893528;29;20032;-57
2022/10/06 02:11:42;;;;;;;7.35;1.48;;;;;;;;;;4897241;29;20122;-58
2022/10/06 02:14:07;;;;;;;6.43;1.50;;;;;;;;;;4894669;29;22750;-56
2022/10/06 02:16:34;;;;;;;9.57;1.67;;;;;;;;;;4896695;29;20040;-57
2022/10/06 02:19:00;;;;;;;4.82;1.30;;;;;;;;;;4895626;29;20032;-57
2022/10/06 02:21:25;;;;;;;5.80;1.38;;;;;;;;;;4896553;29;20358;-58
2022/10/06 02:23:50;;;;;;;5.85;1.45;;;;;;;;;;4896986;29;20068;-58
2022/10/06 02:26:17;;;;;;;8.77;1.73;;;;;;;;;;4894688;29;20486;-56
2022/10/06 02:28:43;;;;;;;10.50;1.90;;;;;;;;;;4897373;29;20470;-56
2022/10/06 02:31:10;;;;;;;9.32;1.67;;;;;;;;;;4897637;29;20071;-57
2022/10/06 02:33:36;;;;;;;6.70;1.25;;;;;;;;;;4896804;29;20379;-58
2022/10/06 02:36:04;;;;;;;7.13;1.45;;;;;;;;;;4897584;29;20048;-56
2022/10/06 02:38:31;;;;;;;5.55;1.45;;;;;;;;;;4896224;29;20131;-56
2022/10/06 02:40:57;;;;;;;9.05;1.60;;;;;;;;;;4894681;29;20064;-55
2022/10/06 02:43:22;;;;;;;9.98;1.60;;;;;;;;;;4893490;29;20036;-57
2022/10/06 02:46:14;;;;;;;8.73;1.70;;;;;;;;;;4882528;29;20029;-58
2022/10/06 02:48:40;;;;;;;7.70;1.58;;;;;;;;;;4891369;29;20052;-57
2022/10/06 02:51:10;;;;;;;9.27;1.75;;;;;;;;;;4897480;29;20036;-57
2022/10/06 02:53:35;;;;;;;8.93;1.90;;;;;;;;;;4866736;29;20150;-57
2022/10/06 02:56:09;;;;;;;5.88;1.58;;;;;;;;;;4888703;29;20249;-55
2022/10/06 02:58:36;;;;;;;11.77;2.17;;;;;;;;;;4885734;29;20085;-55
2022/10/06 03:01:07;;;;;;;8.27;1.77;;;;;;;;;;4890772;29;20085;-56
2022/10/06 03:03:35;;;;;;;;;;;;;;;;;;4888277;29;20040;-57
2022/10/06 03:06:23;;;;;;;5.60;1.42;;;;;;;;;;4895867;29;19959;-57
2022/10/06 03:09:04;;;;;;;8.02;1.60;;;;;;;;;;4896023;29;20039;-57
2022/10/06 03:11:36;;;;;;;10.63;2.35;;;;;;;;;;4895901;29;20104;-57
2022/10/06 03:14:01;;;;;;;12.90;1.90;;;;;;;;;;4888892;29;20059;-57
2022/10/06 03:16:38;;;;;;;12.00;2.08;;;;;;;;;;4881898;29;20480;-58
2022/10/06 03:19:04;;;;;;;10.50;1.30;;;;;;;;;;4896089;29;20039;-58
2022/10/06 03:21:34;;;;;;;6.40;1.50;;;;;;;;;;4896585;29;20036;-58
2022/10/06 03:24:00;;;;;;;10.80;1.63;;;;;;;;;;4891579;29;20032;-57
2022/10/06 03:26:32;;;;;;;8.32;2.05;;;;;;;;;;4893773;29;20043;-58
2022/10/06 03:28:57;;;;;;;12.90;2.53;;;;;;;;;;4878708;29;20371;-58
2022/10/06 03:31:24;;;;;;;8.32;1.80;;;;;;;;;;4894095;29;20044;-57
2022/10/06 03:33:50;;;;;;;7.22;1.75;;;;;;;;;;4894541;29;20541;-56
2022/10/06 03:36:18;;;;;;;7.47;2.17;;;;;;;;;;4894939;29;20466;-58
2022/10/06 03:38:44;;;;;;;10.10;1.77;;;;;;;;;;4881311;29;20553;-58
2022/10/06 03:41:24;;;;;;;7.55;1.52;;;;;;;;;;4895269;29;20144;-58
2022/10/06 03:43:51;;;;;;;10.33;1.80;;;;;;;;;;4893824;29;20033;-57
2022/10/06 03:46:19;;;;;;;10.02;1.70;;;;;;;;;;4891777;29;20040;-60
2022/10/06 03:48:46;;;;;;;3.83;1.30;;;;;;;;;;4890854;29;20070;-58
2022/10/06 03:51:16;;;;;;;6.60;1.63;;;;;;;;;;4895238;29;20037;-58
2022/10/06 03:53:46;;;;;;;13.27;1.90;;;;;;;;;;4896877;29;20087;-58
2022/10/06 03:56:25;;;;;;;4.25;1.40;;;;;;;;;;4896320;29;20052;-58
2022/10/06 03:59:02;;;;;;;7.85;1.65;;;;;;;;;;4894523;29;20067;-58
2022/10/06 04:01:36;;;;;;;9.52;2.17;;;;;;;;;;4890434;29;20040;-60
2022/10/06 04:04:03;;;;;;;6.97;1.98;;;;;;;;;;4893041;29;20058;-57
2022/10/06 04:06:31;;;;;;;6.70;1.80;;;;;;;;;;4877778;29;20092;-58
2022/10/06 04:08:57;;;;;;;7.60;1.73;;;;;;;;;;4887119;29;20120;-58
2022/10/06 04:11:27;;;;;;;10.68;2.00;;;;;;;;;;4877531;29;20115;-59
2022/10/06 04:14:00;;;;;;;6.38;1.90;;;;;;;;;;4895596;29;20074;-59
2022/10/06 04:16:39;;;;;;;8.60;1.80;;;;;;;;;;4894235;29;20402;-58
2022/10/06 04:19:10;;;;;;;10.35;1.80;;;;;;;;;;4895053;29;20088;-59
2022/10/06 04:21:36;;;;;;;;;;;;;;;;;;4894949;29;20216;-58
2022/10/06 04:24:02;;;;;;;13.15;1.90;;;;;;;;;;4896034;29;19919;-58
2022/10/06 04:26:31;;;;;;;7.40;1.80;;;;;;;;;;4895891;29;20081;-59
2022/10/06 04:28:57;;;;;;;8.77;1.90;;;;;;;;;;4887069;29;20052;-58
2022/10/06 04:31:25;;;;;;;7.97;1.70;;;;;;;;;;4895792;29;20075;-59
2022/10/06 04:33:53;;;;;;;8.63;1.98;;;;;;;;;;4886614;29;20049;-59
2022/10/06 04:36:21;;;;;;;6.70;1.90;;;;;;;;;;4894577;29;20044;-59
2022/10/06 04:38:52;;;;;;;12.05;1.80;;;;;;;;;;4894933;29;20495;-58
2022/10/06 04:41:19;;;;;;;7.10;1.75;;;;;;;;;;4896114;29;20047;-59
2022/10/06 04:43:45;;;;;;;6.72;1.88;;;;;;;;;;4895151;29;20041;-60
2022/10/06 04:46:11;;;;;;;10.30;1.80;;;;;;;;;;4896220;29;20445;-60
2022/10/06 04:48:36;;;;;;;9.23;2.00;;;;;;;;;;4894138;29;20053;-60
2022/10/06 04:51:05;;;;;;;8.50;2.13;;;;;;;;;;4894283;29;20060;-60
2022/10/06 04:53:31;;;;;;;16.70;1.92;;;;;;;;;;4878505;29;20450;-60
2022/10/06 04:56:10;;;;;;;9.68;1.80;;;;;;;;;;4894903;29;20112;-60
2022/10/06 04:58:38;;;;;;;7.43;1.95;;;;;;;;;;4891670;29;20039;-60
2022/10/06 05:01:13;;;;;;;7.78;1.65;;;;;;;;;;4889829;29;20033;-60
2022/10/06 05:03:38;;;;;;;12.10;2.80;;;;;;;;;;4884741;29;20059;-59
2022/10/06 05:06:09;;;;;;;7.43;1.70;;;;;;;;;;4879082;29;20080;-57
2022/10/06 05:08:35;;;;;;;9.30;1.77;;;;;;;;;;4890143;29;20482;-58
2022/10/06 05:11:02;;;;;;;8.98;1.80;;;;;;;;;;4892218;29;20029;-59
2022/10/06 05:13:28;;;;;;;10.70;2.13;;;;;;;;;;4891682;29;20466;-59
2022/10/06 05:15:55;;;;;;;9.73;1.67;;;;;;;;;;4878908;29;20036;-60
2022/10/06 05:18:21;;;;;;;6.55;1.75;;;;;;;;;;4884252;29;20157;-60
2022/10/06 05:21:07;;;;;;;10.80;1.98;;;;;;;;;;4898714;29;20489;-60
2022/10/06 05:23:35;;;;;;;8.80;2.15;;;;;;;;;;4897803;29;20049;-60
2022/10/06 05:26:01;;;;;;;16.88;2.05;;;;;;;;;;4899633;29;20032;-59
2022/10/06 05:28:28;;;;;;;6.82;2.08;;;;;;;;;;4897951;29;20069;-59
2022/10/06 05:30:59;;;;;;;8.18;1.88;;;;;;;;;;4899575;29;20111;-58
2022/10/06 05:33:26;;;;;;;12.20;2.13;;;;;;;;;;4897878;29;20128;-57
2022/10/06 05:35:57;;;;;;;9.38;1.92;;;;;;;;;;4899359;29;20092;-55
2022/10/06 05:38:23;;;;;;;10.15;1.90;;;;;;;;;;4894163;29;20047;-58
2022/10/06 05:40:49;;;;;;;8.23;1.95;;;;;;;;;;4883691;29;20083;-59
2022/10/06 05:43:16;;;;;;;8.80;2.40;;;;;;;;;;4898915;29;20077;-59
2022/10/06 05:45:52;;;;;;;11.75;2.45;;;;;;;;;;4897252;29;20029;-57
2022/10/06 05:48:17;;;;;;;12.00;2.38;;;;;;;;;;4897536;29;20073;-59
2022/10/06 05:50:42;;;;;;;9.45;2.35;;;;;;;;;;4897782;29;20041;-58
2022/10/06 05:53:08;;;;;;;12.18;2.42;;;;;;;;;;4894393;29;20036;-59
2022/10/06 05:55:33;;;;;;;10.95;2.20;;;;;;;;;;4862592;29;20089;-56
2022/10/06 05:57:58;;;;;;;12.77;2.30;;;;;;;;;;4898381;29;20497;-59
2022/10/06 06:00:24;;;;;;;8.50;2.15;;;;;;;;;;4876123;29;20033;-59
2022/10/06 06:02:49;;;;;;;12.63;2.55;;;;;;;;;;4881109;29;20489;-59
2022/10/06 06:05:15;;;;;;;9.55;2.13;;;;;;;;;;4898777;29;20036;-59
2022/10/06 06:07:40;;;;;;;15.70;3.10;;;;;;;;;;4892161;29;20101;-60
2022/10/06 06:10:06;;;;;;;15.30;2.38;;;;;;;;;;4897726;29;20060;-57
2022/10/06 06:12:31;;;;;;;12.07;2.30;;;;;;;;;;4897838;29;20395;-58
2022/10/06 06:17:40;;;;;;;12.48;2.17;;;;;;;;;;4896864;29;20039;-58
2022/10/06 06:20:06;;;;;;;9.88;2.10;;;;;;;;;;4898653;29;20028;-57
2022/10/06 06:22:31;;;;;;;10.52;2.60;;;;;;;;;;4896696;29;20386;-58
2022/10/06 06:24:57;;;;;;;18.45;2.60;;;;;;;;;;4895149;29;20486;-60
2022/10/06 06:27:22;;;;;;;11.25;2.65;;;;;;;;;;4896303;29;20042;-61
2022/10/06 22:01:10;;;;;;;10.53;4.40;;;;;;;;;;3928736;23;20453;31
2022/10/06 22:03:37;;;;;;;11.98;4.30;;;;;;;;;;4836693;29;20411;-63
2022/10/06 22:06:04;;;;;;;13.98;4.40;;;;;;;;;;4844330;29;20121;-62
2022/10/06 22:08:31;;;;;;;13.02;4.80;;;;;;;;;;4833170;29;20041;-63
2022/10/06 22:11:05;;;;;;;11.95;4.78;;;;;;;;;;4824943;29;20034;-63
2022/10/06 22:13:30;;;;;;;12.02;4.43;;;;;;;;;;4824366;29;20109;-63
2022/10/06 22:15:56;;;;;;;11.30;4.78;;;;;;;;;;4825350;29;20125;-63
2022/10/06 22:18:21;;;;;;;10.73;4.25;;;;;;;;;;4825132;29;20095;-63
2022/10/06 22:20:46;;;;;;;15.20;6.38;;;;;;;;;;4824644;29;20092;-62
2022/10/06 22:23:12;;;;;;;12.30;4.45;;;;;;;;;;4825208;29;20042;-63
2022/10/06 22:25:38;;;;;;;12.13;4.40;;;;;;;;;;4823853;29;20039;-63
2022/10/06 22:28:03;;;;;;;10.93;4.60;;;;;;;;;;4825278;29;20056;-62
2022/10/06 22:30:28;;;;;;;11.13;4.65;;;;;;;;;;4823830;29;20038;-62
2022/10/06 22:32:54;;;;;;;13.20;4.85;;;;;;;;;;4824990;29;20425;-62
2022/10/06 22:35:19;;;;;;;16.88;4.80;;;;;;;;;;4825171;29;20042;-62
2022/10/06 22:37:44;;;;;;;11.82;4.60;;;;;;;;;;4823902;29;20042;-62
2022/10/06 22:40:10;;;;;;;14.38;4.63;;;;;;;;;;4824651;29;20459;-61
2022/10/06 22:42:35;;;;;;;12.65;4.93;;;;;;;;;;4823443;29;20030;-62
2022/10/06 22:45:00;;;;;;;12.80;5.03;;;;;;;;;;4824157;29;20031;-61
2022/10/06 22:47:26;;;;;;;10.40;4.80;;;;;;;;;;4823540;29;20460;-62
2022/10/06 22:49:51;;;;;;;13.30;4.43;;;;;;;;;;4824269;29;20042;-61
2022/10/06 22:52:16;;;;;;;15.07;5.28;;;;;;;;;;4824224;29;20041;-62
2022/10/06 22:54:42;;;;;;;15.35;5.13;;;;;;;;;;4823328;29;20034;-63
2022/10/06 22:57:07;;;;;;;12.23;4.72;;;;;;;;;;4824556;29;20053;-62
2022/10/06 22:59:33;;;;;;;10.85;4.70;;;;;;;;;;4823092;29;20034;-63
2022/10/06 23:01:58;;;;;;;11.32;4.70;;;;;;;;;;4824238;29;20050;-62
2022/10/06 23:04:32;;;;;;;11.88;4.90;;;;;;;;;;4829603;29;20041;-62
2022/10/06 23:06:57;;;;;;;18.77;5.25;;;;;;;;;;4826006;29;20392;-62
2022/10/06 23:09:23;;;;;;;13.05;4.70;;;;;;;;;;4822312;29;20030;-62
2022/10/06 23:11:49;;;;;;;11.48;4.57;;;;;;;;;;4816183;29;20058;-62
2022/10/06 23:14:14;;;;;;;10.38;4.85;;;;;;;;;;4823928;29;20035;-62
2022/10/06 23:16:40;;;;;;;10.98;4.90;;;;;;;;;;4823091;29;20069;-61
2022/10/06 23:19:05;;;;;;;13.43;4.43;;;;;;;;;;4824310;29;20039;-62
2022/10/06 23:21:31;;;;;;;12.05;4.80;;;;;;;;;;4823049;29;20041;-61
2022/10/06 23:23:59;;;;;;;11.63;4.78;;;;;;;;;;4823905;29;20037;-62
2022/10/06 23:26:25;;;;;;;12.05;5.07;;;;;;;;;;4822360;29;20034;-64
2022/10/06 23:28:56;;;;;;;12.13;4.75;;;;;;;;;;4822203;29;20064;-63
2022/10/06 23:31:22;;;;;;;14.52;5.20;;;;;;;;;;4823495;29;20369;-62
2022/10/06 23:33:48;;;;;;;11.00;4.68;;;;;;;;;;4823028;29;20038;-62
2022/10/06 23:36:13;;;;;;;16.50;4.88;;;;;;;;;;4823792;29;20039;-62
2022/10/06 23:38:41;;;;;;;13.35;4.88;;;;;;;;;;4823004;29;20034;-62
2022/10/06 23:41:07;;;;;;;11.93;4.65;;;;;;;;;;4823895;29;20059;-62
2022/10/06 23:43:33;;;;;;;17.55;4.80;;;;;;;;;;4822666;29;20396;-61
2022/10/06 23:45:59;;;;;;;13.32;5.05;;;;;;;;;;4823830;29;20052;-62
2022/10/06 23:48:24;;;;;;;12.65;4.75;;;;;;;;;;4823803;29;20485;-63
2022/10/06 23:51:10;;;;;;;12.55;4.78;;;;;;;;;;4823090;29;20034;-63
2022/10/06 23:53:36;;;;;;;12.48;4.68;;;;;;;;;;4822780;29;20429;-63
2022/10/06 23:56:02;;;;;;;17.45;4.78;;;;;;;;;;4822532;29;20091;-62
2022/10/06 23:58:28;;;;;;;11.30;4.43;;;;;;;;;;4823072;29;20042;-63
